Paxville, South Carolina
Current Conditions -  °F | °C
As of 3:15 PM on Wednesday 26 Nov 2014 (Local Time) from KSMS Reporting Station
Overcast Overcast  
Wind Chill: 13°   Ceiling: 4500
Heat Index: 13°   Visibility: 10mi
Dew Point:   Wind: 5mph
Humidity: 72%   Direction: 310°NW
Pressure: 30.02"   Gusts: 13mph
Location:  33.6434°N, 80.1966°W
Report Text: KSMS 262015Z AUTO 31004G11KT 10SM FEW025 OVC045 13/08 A3002 RMK AO2
Loading
Personal Weather Stations






























Interactive Weather Map New forecast layout! Learn more

10-Day Weather Forecast

Advertisements
Track Severe Weather on mobile